Time;durP1;ratioP1;P1;durP2;ratioP2;P2;SDS_P1;SDS_P2;PMS_P1;PMS_P2;Temp;Humidity;BMP_temperature;BMP_pressure;BME280_temperature;BME280_humidity;BME280_pressure;Samples;Min_cycle;Max_cycle;Signal;HPM_P1;HPM_P2
2023/04/13 00:01:00;;;;;;;15.73;3.00;;;20.80;58.30;;;;;;4877097;29;20100;-75
2023/04/13 00:03:29;;;;;;;12.35;3.30;;;20.80;58.30;;;;;;4877372;29;20105;-75
2023/04/13 00:05:55;;;;;;;11.43;2.97;;;20.80;58.20;;;;;;4877253;29;20190;-75
2023/04/13 00:08:21;;;;;;;11.75;2.65;;;20.80;58.30;;;;;;4891202;29;20132;-75
2023/04/13 00:10:49;;;;;;;8.77;3.20;;;20.80;58.30;;;;;;4877201;29;20056;-76
2023/04/13 00:13:17;;;;;;;13.45;3.60;;;20.80;58.20;;;;;;4877132;29;20435;-77
2023/04/13 00:15:43;;;;;;;9.18;2.95;;;20.80;58.10;;;;;;4876016;29;20354;-76
2023/04/13 00:18:22;;;;;;;7.45;2.90;;;20.80;58.30;;;;;;4876744;29;20029;-76
2023/04/13 00:20:48;;;;;;;12.73;3.03;;;20.80;58.20;;;;;;4893973;29;20035;-75
2023/04/13 00:23:14;;;;;;;11.60;3.00;;;20.70;58.10;;;;;;4880805;29;20489;-75
2023/04/13 00:25:40;;;;;;;9.65;2.90;;;20.70;58.20;;;;;;4895050;29;20048;-75
2023/04/13 00:28:07;;;;;;;9.30;3.17;;;20.80;58.30;;;;;;4879286;29;20033;-75
2023/04/13 00:30:32;;;;;;;10.95;2.85;;;20.70;58.20;;;;;;4894493;29;20442;-76
2023/04/13 00:32:58;;;;;;;8.07;2.65;;;20.70;58.20;;;;;;4863733;29;20485;-74
2023/04/13 00:35:25;;;;;;;10.90;3.10;;;20.70;58.20;;;;;;4894901;29;20120;-75
2023/04/13 00:37:52;;;;;;;6.78;3.08;;;20.70;58.20;;;;;;4894243;29;20108;-74
2023/04/13 00:40:18;;;;;;;6.47;2.63;;;20.70;58.10;;;;;;4879582;29;20033;-74
2023/04/13 00:42:48;;;;;;;6.40;3.00;;;20.70;58.00;;;;;;4880886;29;20482;-74
2023/04/13 00:45:16;;;;;;;8.40;2.53;;;20.70;58.00;;;;;;4879580;29;20029;-75
2023/04/13 00:47:47;;;;;;;12.68;2.88;;;20.70;58.00;;;;;;4879410;29;20518;-74
2023/04/13 00:50:13;;;;;;;12.00;3.10;;;20.70;58.00;;;;;;4895065;29;20041;-74
2023/04/13 00:52:41;;;;;;;10.23;2.88;;;20.70;58.00;;;;;;4880743;29;20032;-74
2023/04/13 00:55:07;;;;;;;6.70;2.70;;;20.70;58.20;;;;;;4895041;29;20216;-75
2023/04/13 00:57:34;;;;;;;5.95;2.60;;;20.70;57.90;;;;;;4879359;29;20043;-75
2023/04/13 01:00:08;;;;;;;12.15;2.88;;;20.70;58.00;;;;;;4880472;29;20084;-75
2023/04/13 01:02:35;;;;;;;8.65;2.65;;;20.70;58.00;;;;;;4894631;29;20124;-75
2023/04/13 01:05:04;;;;;;;7.28;2.72;;;20.70;57.90;;;;;;4894744;29;20033;-75
2023/04/13 01:07:48;;;;;;;7.57;2.60;;;20.70;58.10;;;;;;4880242;29;20056;-75
2023/04/13 01:10:44;;;;;;;5.68;2.50;;;20.70;58.00;;;;;;4879996;29;20409;-75
2023/04/13 01:13:27;;;;;;;7.47;2.53;;;20.70;58.00;;;;;;4876376;29;20112;-75
2023/04/13 01:16:20;;;;;;;7.18;2.42;;;20.70;57.90;;;;;;4880494;29;20553;-74
2023/04/13 01:18:52;;;;;;;14.07;2.80;;;20.70;58.10;;;;;;4894299;29;20033;-75
2023/04/13 01:21:23;;;;;;;8.95;2.50;;;20.60;57.90;;;;;;4894616;29;20033;-75
2023/04/13 01:24:22;;;;;;;8.27;3.05;;;20.70;57.90;;;;;;4879622;29;20061;-76
2023/04/13 01:27:10;;;;;;;6.13;2.65;;;20.70;57.80;;;;;;4893908;29;20045;-74
2023/04/13 01:29:37;;;;;;;3.75;2.22;;;20.70;58.00;;;;;;4894276;29;20028;-75
2023/04/13 01:32:05;;;;;;;6.97;2.28;;;20.70;58.10;;;;;;4893468;29;20116;-76
2023/04/13 01:34:32;;;;;;;8.60;2.42;;;20.70;58.10;;;;;;4894523;29;20044;-75
2023/04/13 01:37:03;;;;;;;4.47;2.28;;;20.70;58.00;;;;;;4894459;29;20068;-75
2023/04/13 01:39:31;;;;;;;4.93;2.70;;;20.70;58.10;;;;;;4878573;29;20032;-75
2023/04/13 01:42:03;;;;;;;6.30;2.50;;;20.70;58.00;;;;;;4894000;29;20096;-74
2023/04/13 01:44:33;;;;;;;5.95;2.63;;;20.70;57.90;;;;;;4878772;29;20434;-75
2023/04/13 01:47:15;;;;;;;5.93;2.10;;;20.70;58.00;;;;;;4879953;29;20029;-74
2023/04/13 01:50:28;;;;;;;5.75;2.35;;;20.70;58.10;;;;;;4878233;29;20053;-75
2023/04/13 01:53:10;;;;;;;6.90;2.53;;;20.70;58.20;;;;;;4878579;29;20044;-75
2023/04/13 01:55:40;;;;;;;4.85;2.25;;;20.70;58.00;;;;;;4878446;29;20406;-75
2023/04/13 01:58:09;;;;;;;5.03;2.60;;;20.70;58.10;;;;;;4877950;29;20140;-75
2023/04/13 02:00:36;;;;;;;8.98;2.20;;;20.70;58.10;;;;;;4863107;29;20029;-75
2023/04/13 02:03:06;;;;;;;;;;;20.60;57.90;;;;;;4878694;29;20097;-75
2023/04/13 02:05:35;;;;;;;5.63;2.35;;;20.60;58.00;;;;;;4877883;29;20398;-75
2023/04/13 02:08:04;;;;;;;7.53;2.85;;;20.60;57.80;;;;;;4893359;29;20036;-75
2023/04/13 02:10:33;;;;;;;3.85;1.98;;;20.60;58.10;;;;;;4893462;29;20040;-75
2023/04/13 02:13:00;;;;;;;3.95;2.08;;;20.60;58.00;;;;;;4877975;29;20047;-74
2023/04/13 02:15:26;;;;;;;7.28;2.78;;;20.60;58.10;;;;;;4877918;29;20025;-75
2023/04/13 02:17:53;;;;;;;6.22;2.70;;;20.60;58.20;;;;;;4877957;29;20025;-75
2023/04/13 02:20:19;;;;;;;5.68;2.42;;;20.60;58.20;;;;;;4878105;29;20106;-74
2023/04/13 02:22:45;;;;;;;6.20;2.40;;;20.60;58.10;;;;;;4877815;29;20130;-74
2023/04/13 02:25:12;;;;;;;3.92;1.98;;;20.60;58.10;;;;;;4893040;29;20500;-75
2023/04/13 02:27:41;;;;;;;5.38;2.30;;;20.60;57.90;;;;;;4877393;29;20032;-75
2023/04/13 02:30:09;;;;;;;3.88;2.00;;;20.60;58.00;;;;;;4878918;29;20033;-75
2023/04/13 02:32:39;;;;;;;12.10;2.33;;;20.70;58.20;;;;;;4862254;29;20076;-75
2023/04/13 02:35:11;;;;;;;8.23;2.25;;;20.70;58.40;;;;;;4893448;29;20033;-75
2023/04/13 02:37:39;;;;;;;6.28;1.98;;;20.70;58.20;;;;;;4878541;29;20064;-75
2023/04/13 02:40:09;;;;;;;5.40;2.10;;;20.70;58.20;;;;;;4893018;29;20029;-75
2023/04/13 02:42:35;;;;;;;15.55;2.75;;;20.70;58.30;;;;;;4878170;29;20481;-75
2023/04/13 02:45:03;;;;;;;6.45;2.05;;;20.60;58.20;;;;;;4892891;29;20497;-75
2023/04/13 02:47:29;;;;;;;7.28;2.17;;;20.60;58.20;;;;;;4893144;29;20033;-75
2023/04/13 02:49:57;;;;;;;7.38;2.38;;;20.60;58.30;;;;;;4892824;29;20032;-74
2023/04/13 02:52:27;;;;;;;5.60;1.92;;;20.60;58.30;;;;;;4892739;29;20032;-75
2023/04/13 02:54:59;;;;;;;4.57;2.33;;;20.60;58.20;;;;;;4877191;29;20044;-73
2023/04/13 02:57:30;;;;;;;16.98;2.72;;;20.60;58.20;;;;;;4877187;29;20052;-73
2023/04/13 02:59:58;;;;;;;8.48;2.38;;;20.60;58.30;;;;;;4876942;29;20032;-74
2023/04/13 03:02:30;;;;;;;5.55;2.08;;;20.60;58.20;;;;;;4862730;29;20105;-75
2023/04/13 03:04:58;;;;;;;3.60;1.83;;;20.60;58.10;;;;;;4861359;29;20036;-75
2023/04/13 03:07:26;;;;;;;6.57;2.30;;;20.60;58.10;;;;;;4891903;29;20051;-74
2023/04/13 03:09:52;;;;;;;7.30;2.05;;;20.60;58.20;;;;;;4892304;29;20033;-75
2023/04/13 03:12:19;;;;;;;8.65;2.20;;;20.60;58.00;;;;;;4892474;29;20486;-75
2023/04/13 03:14:48;;;;;;;3.47;1.60;;;20.60;58.10;;;;;;4892576;29;20473;-75
2023/04/13 03:17:15;;;;;;;5.45;1.92;;;20.60;58.10;;;;;;4892300;29;20036;-74
2023/04/13 03:19:45;;;;;;;4.78;1.92;;;20.60;58.00;;;;;;4878027;29;20370;-74
2023/04/13 03:22:11;;;;;;;3.95;1.70;;;20.60;58.00;;;;;;4878093;29;20511;-74
2023/04/13 03:24:43;;;;;;;4.50;2.10;;;20.60;58.00;;;;;;4876700;29;20048;-74
2023/04/13 03:27:11;;;;;;;3.90;2.00;;;20.60;58.10;;;;;;4891531;29;20125;-74
2023/04/13 03:29:43;;;;;;;5.70;1.70;;;20.60;58.10;;;;;;4876508;29;20043;-76
2023/04/13 03:32:13;;;;;;;6.88;1.90;;;20.60;58.00;;;;;;4861242;29;20040;-75
2023/04/13 03:34:43;;;;;;;7.22;2.60;;;20.60;58.00;;;;;;4876831;29;20550;-75
2023/04/13 03:37:11;;;;;;;3.20;1.70;;;20.60;58.00;;;;;;4877419;29;20044;-75
2023/04/13 03:39:38;;;;;;;3.53;2.05;;;20.60;57.90;;;;;;4876476;29;20475;-76
2023/04/13 03:42:05;;;;;;;6.57;1.70;;;20.60;57.90;;;;;;4876409;29;20460;-75
2023/04/13 03:44:31;;;;;;;3.33;1.75;;;20.60;57.80;;;;;;4877663;29;20119;-74
2023/04/13 03:46:58;;;;;;;4.82;1.80;;;20.60;57.90;;;;;;4892040;29;20032;-75
2023/04/13 03:49:29;;;;;;;6.50;1.85;;;20.60;57.80;;;;;;4876504;29;20112;-75
2023/04/13 03:51:56;;;;;;;5.90;2.20;;;20.60;57.80;;;;;;4891957;29;20111;-75
2023/04/13 03:54:22;;;;;;;4.68;1.90;;;20.60;57.90;;;;;;4891034;29;20040;-74
2023/04/13 03:56:50;;;;;;;4.07;1.85;;;20.60;57.90;;;;;;4891515;29;20053;-75
2023/04/13 03:59:16;;;;;;;11.95;2.30;;;20.60;57.80;;;;;;4876180;29;20093;-75
2023/04/13 04:01:42;;;;;;;6.43;1.70;;;20.60;57.70;;;;;;4891935;29;20033;-75
2023/04/13 04:04:08;;;;;;;7.72;1.80;;;20.60;57.70;;;;;;4876457;29;20045;-75
2023/04/13 04:06:35;;;;;;;4.30;1.75;;;20.60;57.70;;;;;;4892009;29;20037;-75
2023/04/13 04:09:09;;;;;;;4.93;1.83;;;20.60;57.60;;;;;;4891322;29;20033;-75
2023/04/13 04:11:44;;;;;;;3.08;1.70;;;20.60;57.60;;;;;;4891917;29;20037;-75
2023/04/13 04:14:11;;;;;;;3.60;1.70;;;20.60;57.60;;;;;;4891868;29;20040;-75
2023/04/13 04:16:40;;;;;;;3.60;1.88;;;20.60;57.70;;;;;;4876287;29;20037;-75
2023/04/13 04:19:09;;;;;;;2.60;1.70;;;20.60;57.70;;;;;;4891422;29;20088;-75
2023/04/13 04:21:35;;;;;;;3.90;1.90;;;20.60;57.60;;;;;;4891914;29;20060;-75
2023/04/13 04:24:07;;;;;;;;;;;20.60;57.70;;;;;;4876802;29;20115;-75
2023/04/13 04:26:36;;;;;;;4.13;1.50;;;20.60;58.00;;;;;;4875901;29;19916;-75
2023/04/13 04:29:02;;;;;;;5.80;2.28;;;20.60;57.80;;;;;;4891457;29;20037;-74
2023/04/13 04:31:34;;;;;;;5.35;2.00;;;20.60;57.70;;;;;;4876193;29;20528;-75
2023/04/13 04:34:02;;;;;;;4.38;1.80;;;20.60;57.80;;;;;;4876216;29;20041;-73
2023/04/13 04:36:32;;;;;;;5.03;1.70;;;20.60;57.70;;;;;;4875665;29;20036;-75
2023/04/13 04:39:01;;;;;;;4.78;2.13;;;20.70;57.80;;;;;;4875859;29;20390;-74
2023/04/13 04:41:29;;;;;;;4.40;1.67;;;20.60;57.80;;;;;;4891551;29;20032;-74
2023/04/13 04:44:02;;;;;;;2.60;1.60;;;20.60;57.60;;;;;;4891693;29;20033;-74
2023/04/13 04:46:31;;;;;;;4.43;1.88;;;20.60;57.70;;;;;;4891291;29;20115;-74
2023/04/13 04:49:02;;;;;;;4.32;1.77;;;20.70;58.40;;;;;;4891366;29;20035;-75
2023/04/13 04:51:29;;;;;;;4.00;1.90;;;20.60;57.50;;;;;;4875494;29;20378;-73
2023/04/13 04:53:57;;;;;;;4.32;2.00;;;20.60;58.00;;;;;;4891609;29;20504;-75
2023/04/13 04:56:24;;;;;;;4.35;2.00;;;20.60;57.80;;;;;;4875896;29;20037;-74
2023/04/13 04:58:52;;;;;;;3.90;1.80;;;20.70;57.60;;;;;;4891109;29;20032;-74
2023/04/13 05:01:25;;;;;;;4.05;1.90;;;20.70;57.90;;;;;;4891439;29;20040;-75
2023/04/13 05:03:52;;;;;;;3.35;1.70;;;20.70;58.00;;;;;;4891772;29;20029;-75
2023/04/13 05:06:31;;;;;;;4.07;1.95;;;20.60;57.60;;;;;;4877249;29;20101;-76
2023/04/13 05:09:03;;;;;;;8.55;2.40;;;20.70;58.20;;;;;;4879044;29;20036;-75
2023/04/13 05:11:31;;;;;;;5.82;2.40;;;20.70;57.70;;;;;;4879405;29;20127;-75
2023/04/13 05:13:59;;;;;;;3.85;2.00;;;20.70;57.70;;;;;;4894798;29;20033;-75
2023/04/13 05:16:29;;;;;;;4.25;2.10;;;20.60;57.70;;;;;;4894510;29;20056;-75
2023/04/13 05:18:57;;;;;;;3.95;2.22;;;20.60;57.70;;;;;;4894209;29;20492;-75
2023/04/13 05:21:46;;;;;;;3.92;2.20;;;20.70;57.80;;;;;;4879717;29;20044;-75
2023/04/13 05:24:12;;;;;;;4.00;2.05;;;20.60;57.60;;;;;;4894504;29;20032;-76
2023/04/13 05:26:42;;;;;;;5.28;2.50;;;20.60;57.80;;;;;;4894499;29;20040;-76
2023/04/13 05:29:08;;;;;;;3.80;2.33;;;20.60;57.70;;;;;;4894510;29;20500;-76
2023/04/13 05:31:37;;;;;;;6.90;2.75;;;20.60;58.00;;;;;;4894259;29;20438;-75
2023/04/13 05:34:03;;;;;;;3.97;2.00;;;20.60;57.70;;;;;;4894254;29;20092;-75
2023/04/13 05:36:31;;;;;;;5.82;2.72;;;20.60;58.00;;;;;;4894144;29;20520;-75
2023/04/13 05:39:01;;;;;;;5.25;2.30;;;20.60;57.60;;;;;;4893878;29;20504;-75
2023/04/13 05:41:28;;;;;;;5.13;2.30;;;20.60;57.70;;;;;;4894214;29;20088;-75
2023/04/13 05:43:54;;;;;;;6.35;2.50;;;20.60;57.60;;;;;;4879686;29;20025;-75
2023/04/13 05:46:20;;;;;;;5.68;2.60;;;20.70;57.50;;;;;;4894024;29;20033;-75
2023/04/13 05:48:46;;;;;;;6.07;2.38;;;20.60;57.50;;;;;;4878493;29;20394;-76
2023/04/13 05:51:14;;;;;;;6.05;2.35;;;20.60;57.60;;;;;;4893692;29;20037;-75
2023/04/13 05:53:40;;;;;;;7.43;2.40;;;20.60;57.50;;;;;;4879212;29;20041;-75
2023/04/13 05:56:07;;;;;;;4.18;2.33;;;20.60;58.00;;;;;;4878317;29;20041;-75
2023/04/13 05:58:35;;;;;;;8.23;2.50;;;20.60;57.90;;;;;;4893885;29;20044;-74
2023/04/13 06:01:23;;;;;;;10.73;2.90;;;20.60;57.60;;;;;;4891393;29;20098;-75
2023/04/13 06:03:50;;;;;;;8.10;2.65;;;20.60;57.60;;;;;;4893613;29;20033;-74
2023/04/13 06:06:17;;;;;;;5.50;2.28;;;20.60;57.80;;;;;;4894091;29;20033;-75
2023/04/13 06:08:43;;;;;;;6.15;2.75;;;20.60;58.30;;;;;;4893240;29;20040;-75
2023/04/13 06:11:09;;;;;;;6.85;2.63;;;20.60;58.20;;;;;;4894120;29;20033;-75
2023/04/13 06:13:36;;;;;;;4.03;1.90;;;20.70;57.90;;;;;;4893796;29;20033;-75
2023/04/13 06:16:01;;;;;;;5.57;2.05;;;20.70;58.10;;;;;;4893745;29;20036;-75
2023/04/13 06:18:28;;;;;;;8.40;2.30;;;20.70;58.80;;;;;;4892692;29;20513;-75
2023/04/13 06:20:54;;;;;;;12.32;2.60;;;20.80;60.00;;;;;;4893594;29;20033;-75
2023/04/13 06:23:21;;;;;;;10.40;2.40;;;20.80;60.30;;;;;;4893633;29;20497;-78
2023/04/13 06:25:53;;;;;;;9.68;2.75;;;20.80;59.80;;;;;;4893469;29;20490;-75
2023/04/13 06:28:31;;;;;;;12.98;2.78;;;20.80;59.80;;;;;;4876467;29;20500;-76
2023/04/13 06:30:57;;;;;;;13.27;3.10;;;20.80;59.90;;;;;;4893404;29;20080;-75
2023/04/13 06:33:25;;;;;;;14.65;3.80;;;20.80;59.50;;;;;;4893863;29;20043;-77
2023/04/13 06:35:51;;;;;;;14.43;2.83;;;20.80;59.90;;;;;;4892692;29;20439;-78
2023/04/13 06:38:18;;;;;;;11.13;3.50;;;20.90;59.60;;;;;;4892531;29;20592;-78
2023/04/13 06:41:07;;;;;;;10.75;3.22;;;20.80;59.50;;;;;;4890324;29;20076;-77
2023/04/13 06:43:36;;;;;;;;;;;20.80;59.30;;;;;;4893685;29;20068;-78
2023/04/13 06:46:13;;;;;;;10.88;3.13;;;20.80;59.20;;;;;;4877587;29;19911;-77
2023/04/13 06:48:40;;;;;;;15.02;3.42;;;20.80;59.10;;;;;;4892994;29;20071;-78
2023/04/13 06:51:06;;;;;;;15.20;3.05;;;20.70;59.20;;;;;;4892690;29;20064;-78
2023/04/13 06:53:33;;;;;;;13.15;2.92;;;20.70;58.90;;;;;;4893106;29;20043;-78
2023/04/13 06:56:00;;;;;;;9.05;3.40;;;20.70;58.60;;;;;;4877286;29;20071;-77
2023/04/13 06:58:25;;;;;;;26.58;3.40;;;20.70;58.60;;;;;;4878200;29;20052;-78
2023/04/13 07:00:51;;;;;;;11.82;3.42;;;20.70;58.60;;;;;;4892879;29;20025;-78
2023/04/13 07:03:17;;;;;;;7.45;2.95;;;20.60;58.20;;;;;;4877483;29;20113;-77
2023/04/13 07:05:43;;;;;;;9.25;3.25;;;20.70;58.20;;;;;;4892806;29;20116;-79
2023/04/13 07:08:13;;;;;;;8.15;3.13;;;20.70;58.20;;;;;;4861383;29;20393;-77
2023/04/13 07:10:41;;;;;;;11.45;3.40;;;20.60;58.20;;;;;;4893022;29;20094;-78
2023/04/13 07:13:16;;;;;;;10.70;3.22;;;20.60;58.10;;;;;;4892779;29;20033;-77
2023/04/13 07:15:42;;;;;;;6.32;2.85;;;20.60;57.90;;;;;;4877072;29;20029;-77
2023/04/13 07:18:08;;;;;;;6.75;3.28;;;20.60;58.10;;;;;;4861551;29;20367;-77
2023/04/13 07:20:35;;;;;;;8.50;3.63;;;20.60;57.70;;;;;;4877162;29;20033;-78
2023/04/13 07:23:01;;;;;;;9.80;3.50;;;20.60;57.80;;;;;;4878138;29;20033;-76
2023/04/13 07:25:26;;;;;;;8.65;3.65;;;20.60;57.80;;;;;;4876860;29;20033;-77
2023/04/13 07:27:52;;;;;;;7.13;2.90;;;20.60;58.20;;;;;;4877026;29;20486;-77
2023/04/13 07:30:20;;;;;;;9.48;3.38;;;20.60;58.00;;;;;;4875985;29;20393;-76
2023/04/13 07:32:48;;;;;;;8.07;3.30;;;20.60;57.70;;;;;;4876897;29;20375;-77
2023/04/13 07:35:14;;;;;;;5.75;2.92;;;20.60;57.70;;;;;;4876791;29;20033;-76
2023/04/13 07:37:43;;;;;;;8.48;3.35;;;20.60;57.80;;;;;;4876512;29;20029;-76
2023/04/13 07:40:10;;;;;;;7.88;3.58;;;20.60;57.70;;;;;;4892111;29;20037;-76
2023/04/13 07:42:38;;;;;;;8.60;3.05;;;20.60;58.00;;;;;;4861482;29;20397;-77
2023/04/13 07:45:05;;;;;;;9.55;3.67;;;20.70;57.70;;;;;;4876849;29;20091;-77
2023/04/13 07:47:32;;;;;;;8.27;3.08;;;20.60;57.60;;;;;;4891841;29;20082;-77
2023/04/13 07:50:05;;;;;;;5.43;3.17;;;20.60;57.70;;;;;;4874655;29;20061;-78
2023/04/13 07:52:31;;;;;;;6.50;2.70;;;20.60;57.30;;;;;;4893927;29;20106;-77
2023/04/13 07:54:57;;;;;;;7.68;2.92;;;20.60;57.20;;;;;;4892094;29;20044;-78
2023/04/13 07:57:24;;;;;;;7.25;2.80;;;20.70;57.10;;;;;;4891923;29;20065;-77
2023/04/13 07:59:55;;;;;;;8.95;3.20;;;20.70;57.00;;;;;;4871710;29;20025;-78
2023/04/13 08:02:22;;;;;;;8.65;3.40;;;20.70;57.10;;;;;;4892137;29;20033;-79
2023/04/13 08:04:51;;;;;;;10.20;3.28;;;20.60;57.10;;;;;;4891683;29;20029;-77
2023/04/13 08:07:22;;;;;;;6.60;2.90;;;20.70;57.30;;;;;;4889839;29;20039;-77
2023/04/13 08:09:48;;;;;;;7.80;3.33;;;20.70;57.10;;;;;;4844131;29;20118;-77
2023/04/13 08:12:18;;;;;;;6.80;2.80;;;20.70;57.20;;;;;;4857965;29;20041;-77
2023/04/13 08:14:45;;;;;;;6.18;2.70;;;20.70;57.20;;;;;;4873548;29;20402;-77
2023/04/13 08:17:11;;;;;;;9.48;3.20;;;20.70;57.10;;;;;;4860965;29;20099;-77
2023/04/13 08:19:38;;;;;;;5.88;2.80;;;20.70;57.10;;;;;;4891360;29;20055;-78
2023/04/13 08:22:04;;;;;;;15.07;3.42;;;20.70;58.10;;;;;;4876461;29;20030;-78
2023/04/13 08:24:30;;;;;;;11.93;2.80;;;20.70;57.90;;;;;;4877098;29;20089;-76
2023/04/13 08:26:59;;;;;;;7.25;2.55;;;20.80;58.00;;;;;;4891918;29;20075;-78
2023/04/13 08:29:26;;;;;;;15.18;2.88;;;20.80;58.10;;;;;;4877174;29;20139;-78
2023/04/13 08:31:52;;;;;;;10.32;2.90;;;20.80;57.50;;;;;;4891845;29;20041;-78
2023/04/13 08:34:19;;;;;;;13.88;3.40;;;20.80;58.00;;;;;;4876189;29;20041;-78
2023/04/13 08:36:45;;;;;;;9.30;3.30;;;20.80;57.90;;;;;;4876252;29;20041;-79
2023/04/13 08:39:12;;;;;;;9.45;2.35;;;20.80;57.70;;;;;;4891261;29;20088;-79
2023/04/13 08:41:44;;;;;;;12.30;2.97;;;20.80;57.80;;;;;;4877774;29;20565;-77
2023/04/13 08:44:12;;;;;;;12.48;2.92;;;20.80;57.70;;;;;;4894884;29;20166;-77
2023/04/13 08:46:43;;;;;;;;;;;20.80;58.00;;;;;;4894959;29;20073;-77
2023/04/13 08:49:11;;;;;;;8.45;3.40;;;20.90;58.40;;;;;;4894813;29;20383;-78
2023/04/13 08:52:05;;;;;;;28.30;3.65;;;20.80;58.10;;;;;;4881479;29;20052;-78
2023/04/13 08:54:33;;;;;;;17.87;4.00;;;20.80;57.50;;;;;;4895267;29;20060;-77
2023/04/13 08:57:01;;;;;;;10.63;3.22;;;20.80;57.40;;;;;;4895206;29;20082;-77
2023/04/13 08:59:29;;;;;;;8.75;3.22;;;20.70;57.40;;;;;;4879632;29;20033;-77
2023/04/13 09:01:57;;;;;;;6.97;2.90;;;20.70;57.30;;;;;;4895240;29;20040;-77
2023/04/13 09:04:34;;;;;;;7.18;2.97;;;20.70;57.20;;;;;;4895612;29;20498;-77
2023/04/13 09:07:01;;;;;;;8.00;3.22;;;20.70;57.20;;;;;;4895197;29;20060;-77
2023/04/13 09:09:31;;;;;;;9.02;3.60;;;20.70;57.20;;;;;;4894695;29;20080;-77
2023/04/13 09:11:58;;;;;;;7.07;3.25;;;20.70;57.00;;;;;;4895120;29;20029;-77
2023/04/13 09:14:24;;;;;;;8.45;3.30;;;20.70;57.00;;;;;;4879519;29;20051;-78
2023/04/13 09:16:51;;;;;;;8.27;3.20;;;20.70;56.90;;;;;;4894765;29;20041;-77
2023/04/13 09:19:31;;;;;;;8.20;3.40;;;20.70;56.90;;;;;;4894390;29;20112;-77
2023/04/13 09:21:57;;;;;;;7.43;3.35;;;20.70;56.70;;;;;;4894901;29;20537;-77
2023/04/13 09:24:24;;;;;;;5.25;2.92;;;20.70;57.10;;;;;;4880616;29;20116;-77
2023/04/13 09:26:50;;;;;;;5.28;2.72;;;20.70;56.80;;;;;;4894661;29;20037;-77
2023/04/13 09:29:17;;;;;;;9.93;3.25;;;20.70;56.70;;;;;;4894434;29;20458;-77
2023/04/13 09:31:45;;;;;;;7.05;3.00;;;20.80;56.80;;;;;;4878964;29;20560;-77
2023/04/13 09:34:12;;;;;;;9.13;3.38;;;20.70;56.60;;;;;;4880175;29;20094;-77
2023/04/13 09:36:38;;;;;;;10.07;3.17;;;20.70;56.60;;;;;;4894501;29;20094;-77
2023/04/13 09:39:04;;;;;;;7.10;3.10;;;20.70;56.50;;;;;;4878941;29;20028;-77
2023/04/13 09:41:45;;;;;;;8.82;2.80;;;20.80;56.70;;;;;;4894689;29;20391;-77
2023/04/13 09:44:19;;;;;;;5.53;3.10;;;20.80;56.50;;;;;;4894544;29;20070;-77
2023/04/13 09:46:58;;;;;;;10.05;3.13;;;20.70;56.40;;;;;;4880033;29;20111;-77
2023/04/13 09:49:25;;;;;;;5.47;2.72;;;20.70;56.30;;;;;;4878619;29;20051;-78
2023/04/13 09:51:51;;;;;;;7.07;2.70;;;20.70;56.70;;;;;;4879582;29;20505;-76
2023/04/13 09:54:21;;;;;;;4.65;2.67;;;20.70;56.70;;;;;;4879172;29;20037;-77
2023/04/13 09:56:53;;;;;;;6.57;2.72;;;20.80;56.50;;;;;;4879807;29;20476;-77
2023/04/13 09:59:22;;;;;;;7.50;3.10;;;20.80;56.60;;;;;;4879553;29;20025;-77
2023/04/13 10:01:48;;;;;;;7.22;2.83;;;20.80;57.00;;;;;;4880041;29;20505;-77
2023/04/13 10:04:15;;;;;;;12.80;3.00;;;20.80;57.10;;;;;;4879642;29;20040;-77
2023/04/13 10:06:45;;;;;;;7.22;3.03;;;20.80;57.00;;;;;;4879907;29;20029;-77
2023/04/13 10:09:11;;;;;;;5.40;2.47;;;20.90;57.20;;;;;;4879471;29;20037;-76
2023/04/13 10:11:43;;;;;;;4.85;2.70;;;20.80;57.20;;;;;;4879535;29;20493;-75
2023/04/13 10:14:20;;;;;;;6.88;2.92;;;20.80;56.80;;;;;;4879484;29;20081;-76
2023/04/13 10:17:04;;;;;;;5.55;2.80;;;20.80;56.70;;;;;;4878398;29;20036;-75
2023/04/13 10:19:48;;;;;;;6.53;2.70;;;20.80;56.70;;;;;;4879217;29;20035;-76
2023/04/13 10:22:15;;;;;;;5.97;2.80;;;20.80;56.60;;;;;;4879505;29;20060;-76
2023/04/13 10:24:42;;;;;;;8.10;3.40;;;20.80;56.80;;;;;;4879216;29;20028;-77
2023/04/13 10:27:27;;;;;;;6.20;2.70;;;20.80;56.40;;;;;;4879398;29;20040;-76
2023/04/13 10:29:53;;;;;;;5.88;3.40;;;20.80;56.50;;;;;;4878953;29;20040;-76
2023/04/13 10:32:22;;;;;;;5.72;3.33;;;20.80;56.60;;;;;;4879199;29;20045;-76
2023/04/13 10:34:48;;;;;;;5.03;3.00;;;20.80;56.30;;;;;;4879184;29;20048;-76
2023/04/13 10:37:23;;;;;;;6.30;3.00;;;20.80;56.30;;;;;;4893489;29;20029;-75
2023/04/13 10:40:06;;;;;;;6.00;3.10;;;20.80;56.40;;;;;;4877572;29;20484;-75
2023/04/13 10:42:46;;;;;;;7.22;3.05;;;20.80;56.50;;;;;;4879091;29;20040;-75
2023/04/13 10:45:23;;;;;;;;;;;20.80;56.20;;;;;;4862897;29;20029;-76
2023/04/13 10:47:49;;;;;;;4.43;2.58;;;20.80;56.10;;;;;;4878906;29;19976;-75
2023/04/13 10:50:21;;;;;;;5.78;2.60;;;20.80;56.40;;;;;;4878652;29;20144;-76
2023/04/13 10:52:59;;;;;;;6.28;2.90;;;20.80;56.10;;;;;;4878950;29;20037;-76
2023/04/13 10:55:26;;;;;;;6.60;3.00;;;20.80;56.30;;;;;;4878722;29;20116;-76
2023/04/13 10:57:55;;;;;;;6.97;3.28;;;20.80;56.20;;;;;;4878601;29;20041;-76
2023/04/13 11:00:21;;;;;;;8.23;3.27;;;20.80;56.20;;;;;;4878611;29;20033;-76
2023/04/13 11:02:52;;;;;;;6.18;2.88;;;20.80;56.30;;;;;;4877740;29;20043;-76
2023/04/13 11:05:19;;;;;;;6.53;2.83;;;20.80;55.90;;;;;;4877247;29;20486;-76
2023/04/13 11:07:47;;;;;;;5.80;2.72;;;20.80;56.10;;;;;;4893017;29;20072;-76
2023/04/13 11:10:15;;;;;;;6.43;3.58;;;20.80;56.00;;;;;;4878294;29;20044;-76
2023/04/13 11:12:55;;;;;;;5.97;2.70;;;20.80;56.20;;;;;;4877341;29;20477;-76
2023/04/13 11:15:28;;;;;;;5.05;2.88;;;20.80;56.00;;;;;;4878550;29;20100;-76
2023/04/13 11:17:59;;;;;;;6.88;3.03;;;20.80;55.80;;;;;;4876957;29;20072;-76
2023/04/13 11:20:33;;;;;;;5.88;3.03;;;20.80;55.80;;;;;;4892640;29;20029;-76
2023/04/13 11:23:02;;;;;;;6.75;2.95;;;20.80;55.90;;;;;;4878752;29;20029;-76
2023/04/13 11:25:29;;;;;;;5.03;2.83;;;20.80;56.00;;;;;;4878088;29;20044;-76
2023/04/13 11:27:59;;;;;;;6.50;3.15;;;20.80;55.90;;;;;;4878428;29;20041;-76
2023/04/13 11:30:25;;;;;;;5.18;3.15;;;20.70;55.50;;;;;;4878462;29;20037;-76
2023/04/13 11:32:52;;;;;;;5.22;3.03;;;20.80;55.40;;;;;;4892647;29;20439;-76
2023/04/13 11:35:19;;;;;;;7.30;2.70;;;20.80;55.70;;;;;;4878090;29;20524;-76
2023/04/13 11:37:48;;;;;;;5.68;2.90;;;20.80;56.00;;;;;;4878244;29;20033;-76
2023/04/13 11:40:20;;;;;;;5.28;2.88;;;20.80;55.80;;;;;;4878027;29;20025;-76
2023/04/13 11:42:48;;;;;;;7.68;3.50;;;20.80;55.70;;;;;;4878064;29;20043;-76
2023/04/13 11:45:15;;;;;;;6.18;3.10;;;20.80;55.60;;;;;;4892342;29;20603;-77
2023/04/13 11:47:42;;;;;;;5.80;2.90;;;20.70;55.40;;;;;;4876935;29;20426;-76
2023/04/13 11:50:09;;;;;;;6.53;2.97;;;20.80;55.50;;;;;;4876861;29;20037;-76
2023/04/13 11:52:35;;;;;;;5.32;2.88;;;20.70;55.60;;;;;;4878073;29;20401;-76
2023/04/13 11:55:05;;;;;;;5.70;2.67;;;20.70;55.70;;;;;;4877935;29;20041;-77
2023/04/13 11:57:32;;;;;;;6.45;2.95;;;20.70;55.50;;;;;;4878028;29;20604;-76
2023/04/13 11:59:58;;;;;;;7.07;2.90;;;20.70;55.70;;;;;;4877643;29;20494;-77
2023/04/13 12:02:30;;;;;;;7.55;3.10;;;20.70;55.10;;;;;;4892193;29;20025;-77
2023/04/13 12:04:57;;;;;;;6.82;3.00;;;20.70;55.50;;;;;;4877882;29;20029;-76
2023/04/13 12:07:26;;;;;;;5.38;3.17;;;20.70;55.40;;;;;;4878146;29;20538;-76
2023/04/13 12:09:52;;;;;;;5.03;2.53;;;20.70;55.40;;;;;;4877761;29;20044;-76
2023/04/13 12:12:21;;;;;;;6.32;2.78;;;20.70;55.50;;;;;;4877802;29;20282;-77
2023/04/13 12:14:58;;;;;;;8.10;3.00;;;20.70;55.50;;;;;;4892105;29;20403;-77
2023/04/13 12:17:31;;;;;;;8.00;2.90;;;20.80;55.30;;;;;;4882700;29;20041;-76
2023/04/13 12:19:58;;;;;;;5.15;2.70;;;20.70;55.30;;;;;;4881828;29;20119;-76
2023/04/13 12:22:40;;;;;;;5.03;2.63;;;20.70;55.30;;;;;;4880809;29;20169;-76
2023/04/13 12:25:19;;;;;;;4.35;2.60;;;20.80;55.30;;;;;;4881687;29;20025;-76
2023/04/13 12:27:51;;;;;;;7.20;3.10;;;20.70;55.20;;;;;;4881741;29;20041;-76
2023/04/13 12:30:19;;;;;;;5.97;2.90;;;20.80;55.10;;;;;;4881800;29;20040;-76
2023/04/13 12:32:52;;;;;;;4.95;2.90;;;20.80;55.20;;;;;;4881510;29;20037;-76
2023/04/13 12:35:18;;;;;;;6.30;2.88;;;20.80;55.10;;;;;;4895993;29;20040;-76
2023/04/13 12:37:45;;;;;;;5.88;2.60;;;20.70;55.10;;;;;;4880108;29;20033;-76
2023/04/13 12:40:14;;;;;;;4.25;2.75;;;20.80;55.30;;;;;;4880190;29;20063;-76
2023/04/13 12:42:44;;;;;;;6.55;3.13;;;20.70;55.20;;;;;;4895667;29;20097;-76
2023/04/13 12:45:10;;;;;;;6.85;2.85;;;20.80;55.30;;;;;;4880068;29;20021;-76
2023/04/13 12:47:37;;;;;;;4.95;2.38;;;20.80;55.20;;;;;;4895807;29;20036;-76
2023/04/13 12:50:05;;;;;;;7.85;3.20;;;20.70;55.30;;;;;;4880898;29;20053;-76
2023/04/13 12:52:31;;;;;;;7.72;2.80;;;20.70;55.10;;;;;;4881425;29;20112;-75
2023/04/13 12:55:01;;;;;;;5.82;3.08;;;20.70;55.30;;;;;;4881153;29;20037;-76
2023/04/13 12:57:27;;;;;;;;;;;20.70;55.10;;;;;;4881460;29;20033;-75
2023/04/13 12:59:54;;;;;;;7.25;3.20;;;20.70;55.30;;;;;;4880738;29;19918;-75